sensor_id;sensor_type;location;lat;lon;timestamp;temperature;humidity
25302;DHT22;13243;50.888;4.724;2022-10-31T00:02:11;14.70;99.90
25302;DHT22;13243;50.888;4.724;2022-10-31T00:07:13;14.60;99.90
25302;DHT22;13243;50.888;4.724;2022-10-31T00:12:15;14.60;99.90
25302;DHT22;13243;50.888;4.724;2022-10-31T00:17:17;14.70;99.90
25302;DHT22;13243;50.888;4.724;2022-10-31T00:22:19;14.70;99.90
25302;DHT22;13243;50.888;4.724;2022-10-31T00:27:22;14.50;99.90
25302;DHT22;13243;50.888;4.724;2022-10-31T00:32:24;14.50;99.90
25302;DHT22;13243;50.888;4.724;2022-10-31T00:37:26;14.40;99.90
25302;DHT22;13243;50.888;4.724;2022-10-31T00:42:28;14.50;99.90
25302;DHT22;13243;50.888;4.724;2022-10-31T00:47:30;14.30;99.90
25302;DHT22;13243;50.888;4.724;2022-10-31T00:52:32;14.30;99.90
25302;DHT22;13243;50.888;4.724;2022-10-31T00:57:34;14.10;99.90
25302;DHT22;13243;50.888;4.724;2022-10-31T01:02:35;14.20;99.90
25302;DHT22;13243;50.888;4.724;2022-10-31T01:07:39;14.00;99.90
25302;DHT22;13243;50.888;4.724;2022-10-31T01:12:44;14.00;99.90
25302;DHT22;13243;50.888;4.724;2022-10-31T01:17:48;14.00;99.90
25302;DHT22;13243;50.888;4.724;2022-10-31T01:22:50;14.00;99.90
25302;DHT22;13243;50.888;4.724;2022-10-31T01:27:52;13.80;99.90
25302;DHT22;13243;50.888;4.724;2022-10-31T01:32:54;13.90;99.90
25302;DHT22;13243;50.888;4.724;2022-10-31T01:37:56;13.90;99.90
25302;DHT22;13243;50.888;4.724;2022-10-31T01:42:57;13.80;99.90
25302;DHT22;13243;50.888;4.724;2022-10-31T01:48:00;13.60;99.90
25302;DHT22;13243;50.888;4.724;2022-10-31T01:53:02;13.80;99.90
25302;DHT22;13243;50.888;4.724;2022-10-31T01:58:14;13.60;99.90
25302;DHT22;13243;50.888;4.724;2022-10-31T02:03:18;13.50;99.90
25302;DHT22;13243;50.888;4.724;2022-10-31T02:08:30;13.50;99.90
25302;DHT22;13243;50.888;4.724;2022-10-31T02:13:33;13.50;99.90
25302;DHT22;13243;50.888;4.724;2022-10-31T02:18:35;13.30;99.90
25302;DHT22;13243;50.888;4.724;2022-10-31T02:29:44;13.30;99.90
25302;DHT22;13243;50.888;4.724;2022-10-31T02:50:19;12.90;99.90
25302;DHT22;13243;50.888;4.724;2022-10-31T03:00:35;13.10;99.90
25302;DHT22;13243;50.888;4.724;2022-10-31T03:05:59;13.10;99.90
25302;DHT22;13243;50.888;4.724;2022-10-31T03:11:04;13.10;99.90
25302;DHT22;13243;50.888;4.724;2022-10-31T03:21:14;12.90;99.90
25302;DHT22;13243;50.888;4.724;2022-10-31T03:26:19;12.90;99.90
25302;DHT22;13243;50.888;4.724;2022-10-31T03:31:26;13.00;99.90
25302;DHT22;13243;50.888;4.724;2022-10-31T03:36:33;12.90;99.90
25302;DHT22;13243;50.888;4.724;2022-10-31T03:41:40;12.90;99.90
25302;DHT22;13243;50.888;4.724;2022-10-31T03:46:43;12.90;99.90
25302;DHT22;13243;50.888;4.724;2022-10-31T03:52:21;12.80;99.90
25302;DHT22;13243;50.888;4.724;2022-10-31T03:57:51;12.80;99.90
25302;DHT22;13243;50.888;4.724;2022-10-31T04:08:00;12.80;99.90
25302;DHT22;13243;50.888;4.724;2022-10-31T04:13:07;12.80;99.90
25302;DHT22;13243;50.888;4.724;2022-10-31T04:18:10;12.60;99.90
25302;DHT22;13243;50.888;4.724;2022-10-31T04:23:17;12.70;99.90
25302;DHT22;13243;50.888;4.724;2022-10-31T04:28:20;12.50;99.90
25302;DHT22;13243;50.888;4.724;2022-10-31T04:33:22;12.50;99.90
25302;DHT22;13243;50.888;4.724;2022-10-31T04:38:23;12.50;99.90
25302;DHT22;13243;50.888;4.724;2022-10-31T04:43:25;12.40;99.90
25302;DHT22;13243;50.888;4.724;2022-10-31T04:48:27;12.50;99.90
25302;DHT22;13243;50.888;4.724;2022-10-31T04:53:29;12.50;99.90
25302;DHT22;13243;50.888;4.724;2022-10-31T04:58:31;12.60;99.90
25302;DHT22;13243;50.888;4.724;2022-10-31T05:03:32;12.70;99.90
25302;DHT22;13243;50.888;4.724;2022-10-31T05:08:34;12.50;99.90
25302;DHT22;13243;50.888;4.724;2022-10-31T05:13:36;12.60;99.90
25302;DHT22;13243;50.888;4.724;2022-10-31T05:18:38;12.50;99.90
25302;DHT22;13243;50.888;4.724;2022-10-31T05:23:39;12.60;99.90
25302;DHT22;13243;50.888;4.724;2022-10-31T05:28:48;12.40;99.90
25302;DHT22;13243;50.888;4.724;2022-10-31T05:33:50;12.50;99.90
25302;DHT22;13243;50.888;4.724;2022-10-31T05:38:52;12.50;99.90
25302;DHT22;13243;50.888;4.724;2022-10-31T05:43:54;12.50;99.90
25302;DHT22;13243;50.888;4.724;2022-10-31T05:48:55;12.60;99.90
25302;DHT22;13243;50.888;4.724;2022-10-31T05:54:03;12.70;99.90
25302;DHT22;13243;50.888;4.724;2022-10-31T05:59:05;12.70;99.90
25302;DHT22;13243;50.888;4.724;2022-10-31T06:04:07;12.60;99.90
25302;DHT22;13243;50.888;4.724;2022-10-31T06:09:08;12.60;99.90
25302;DHT22;13243;50.888;4.724;2022-10-31T06:14:10;12.60;99.90
25302;DHT22;13243;50.888;4.724;2022-10-31T06:19:12;12.60;99.90
25302;DHT22;13243;50.888;4.724;2022-10-31T06:24:14;12.50;99.90
25302;DHT22;13243;50.888;4.724;2022-10-31T06:29:16;12.60;99.90
25302;DHT22;13243;50.888;4.724;2022-10-31T06:34:18;12.60;99.90
25302;DHT22;13243;50.888;4.724;2022-10-31T06:39:19;12.70;99.90
25302;DHT22;13243;50.888;4.724;2022-10-31T06:44:21;12.70;99.90
25302;DHT22;13243;50.888;4.724;2022-10-31T06:49:23;12.70;99.90
25302;DHT22;13243;50.888;4.724;2022-10-31T06:54:25;12.70;99.90
25302;DHT22;13243;50.888;4.724;2022-10-31T06:59:26;12.80;99.90
25302;DHT22;13243;50.888;4.724;2022-10-31T07:04:28;12.90;99.90
25302;DHT22;13243;50.888;4.724;2022-10-31T07:09:30;12.80;99.90
25302;DHT22;13243;50.888;4.724;2022-10-31T07:14:32;13.00;99.90
25302;DHT22;13243;50.888;4.724;2022-10-31T07:19:33;13.10;99.90
25302;DHT22;13243;50.888;4.724;2022-10-31T07:24:35;13.00;99.90
25302;DHT22;13243;50.888;4.724;2022-10-31T07:29:37;13.00;99.90
25302;DHT22;13243;50.888;4.724;2022-10-31T07:34:39;13.20;99.90
25302;DHT22;13243;50.888;4.724;2022-10-31T07:39:47;13.30;99.90
25302;DHT22;13243;50.888;4.724;2022-10-31T07:44:49;13.50;99.90
25302;DHT22;13243;50.888;4.724;2022-10-31T07:49:55;13.50;99.90
25302;DHT22;13243;50.888;4.724;2022-10-31T07:54:57;13.60;99.90
25302;DHT22;13243;50.888;4.724;2022-10-31T07:59:59;13.70;99.90
25302;DHT22;13243;50.888;4.724;2022-10-31T08:05:01;13.70;99.90
25302;DHT22;13243;50.888;4.724;2022-10-31T08:10:05;13.80;99.90
25302;DHT22;13243;50.888;4.724;2022-10-31T08:15:08;14.00;99.90
25302;DHT22;13243;50.888;4.724;2022-10-31T08:20:10;14.10;99.90
25302;DHT22;13243;50.888;4.724;2022-10-31T08:25:11;14.10;99.90
25302;DHT22;13243;50.888;4.724;2022-10-31T08:30:13;14.10;99.90
25302;DHT22;13243;50.888;4.724;2022-10-31T08:35:15;14.20;99.90
25302;DHT22;13243;50.888;4.724;2022-10-31T08:40:17;14.30;99.90
25302;DHT22;13243;50.888;4.724;2022-10-31T08:45:19;14.40;99.90
25302;DHT22;13243;50.888;4.724;2022-10-31T08:50:20;14.40;99.90
25302;DHT22;13243;50.888;4.724;2022-10-31T08:55:22;14.40;99.90
25302;DHT22;13243;50.888;4.724;2022-10-31T09:00:24;14.50;99.90
25302;DHT22;13243;50.888;4.724;2022-10-31T09:05:27;14.60;99.90
25302;DHT22;13243;50.888;4.724;2022-10-31T09:10:30;14.70;99.90
25302;DHT22;13243;50.888;4.724;2022-10-31T09:15:38;14.60;99.90
25302;DHT22;13243;50.888;4.724;2022-10-31T09:20:41;14.60;99.90
25302;DHT22;13243;50.888;4.724;2022-10-31T09:25:44;14.70;99.90
25302;DHT22;13243;50.888;4.724;2022-10-31T09:30:52;14.70;99.90
25302;DHT22;13243;50.888;4.724;2022-10-31T09:35:54;14.80;99.90
25302;DHT22;13243;50.888;4.724;2022-10-31T09:46:40;15.10;99.90
25302;DHT22;13243;50.888;4.724;2022-10-31T09:57:19;15.20;99.90
25302;DHT22;13243;50.888;4.724;2022-10-31T10:02:37;15.30;99.90
25302;DHT22;13243;50.888;4.724;2022-10-31T10:07:55;15.50;99.90
25302;DHT22;13243;50.888;4.724;2022-10-31T10:19:04;15.60;99.90
25302;DHT22;13243;50.888;4.724;2022-10-31T10:24:17;15.80;99.90
25302;DHT22;13243;50.888;4.724;2022-10-31T10:29:34;15.90;99.90
25302;DHT22;13243;50.888;4.724;2022-10-31T10:34:50;15.80;99.90
25302;DHT22;13243;50.888;4.724;2022-10-31T10:39:56;15.90;99.90
25302;DHT22;13243;50.888;4.724;2022-10-31T10:45:19;15.90;99.90
25302;DHT22;13243;50.888;4.724;2022-10-31T10:50:47;16.00;99.90
25302;DHT22;13243;50.888;4.724;2022-10-31T10:55:58;16.20;99.90
25302;DHT22;13243;50.888;4.724;2022-10-31T11:01:08;16.30;99.90
25302;DHT22;13243;50.888;4.724;2022-10-31T11:06:38;16.60;99.90
25302;DHT22;13243;50.888;4.724;2022-10-31T11:11:40;16.90;99.90
25302;DHT22;13243;50.888;4.724;2022-10-31T11:16:45;17.20;99.90
25302;DHT22;13243;50.888;4.724;2022-10-31T11:21:47;17.40;99.90
25302;DHT22;13243;50.888;4.724;2022-10-31T11:37:26;17.30;99.90
25302;DHT22;13243;50.888;4.724;2022-10-31T11:42:39;17.50;99.90
25302;DHT22;13243;50.888;4.724;2022-10-31T11:47:46;17.70;99.90
25302;DHT22;13243;50.888;4.724;2022-10-31T11:52:49;17.90;99.90
25302;DHT22;13243;50.888;4.724;2022-10-31T11:57:54;18.10;99.90
25302;DHT22;13243;50.888;4.724;2022-10-31T12:08:29;18.40;99.90
25302;DHT22;13243;50.888;4.724;2022-10-31T12:13:40;18.10;99.90
25302;DHT22;13243;50.888;4.724;2022-10-31T12:18:58;18.10;99.90
25302;DHT22;13243;50.888;4.724;2022-10-31T12:35:00;18.90;99.90
25302;DHT22;13243;50.888;4.724;2022-10-31T12:40:32;19.00;99.90
25302;DHT22;13243;50.888;4.724;2022-10-31T13:01:19;19.70;99.90
25302;DHT22;13243;50.888;4.724;2022-10-31T13:06:27;19.80;99.90
25302;DHT22;13243;50.888;4.724;2022-10-31T13:11:35;20.10;99.90
25302;DHT22;13243;50.888;4.724;2022-10-31T13:16:40;20.10;99.90
25302;DHT22;13243;50.888;4.724;2022-10-31T13:27:21;20.50;99.90
25302;DHT22;13243;50.888;4.724;2022-10-31T13:32:26;20.50;99.90
25302;DHT22;13243;50.888;4.724;2022-10-31T13:37:44;20.60;99.90
25302;DHT22;13243;50.888;4.724;2022-10-31T13:43:28;20.70;99.90
25302;DHT22;13243;50.888;4.724;2022-10-31T13:48:35;21.10;99.90
25302;DHT22;13243;50.888;4.724;2022-10-31T13:53:44;20.90;99.90
25302;DHT22;13243;50.888;4.724;2022-10-31T14:04:23;21.20;99.90
25302;DHT22;13243;50.888;4.724;2022-10-31T14:09:31;21.10;99.90
25302;DHT22;13243;50.888;4.724;2022-10-31T14:14:41;21.10;99.90
25302;DHT22;13243;50.888;4.724;2022-10-31T14:19:56;21.60;99.90
25302;DHT22;13243;50.888;4.724;2022-10-31T14:24:58;21.50;99.90
25302;DHT22;13243;50.888;4.724;2022-10-31T14:30:13;21.80;99.90
25302;DHT22;13243;50.888;4.724;2022-10-31T14:35:16;21.80;99.90
25302;DHT22;13243;50.888;4.724;2022-10-31T14:45:45;22.00;99.90
25302;DHT22;13243;50.888;4.724;2022-10-31T14:50:57;22.00;99.90
25302;DHT22;13243;50.888;4.724;2022-10-31T14:56:00;21.60;99.90
25302;DHT22;13243;50.888;4.724;2022-10-31T15:01:07;21.70;99.90
25302;DHT22;13243;50.888;4.724;2022-10-31T15:06:14;22.40;99.90
25302;DHT22;13243;50.888;4.724;2022-10-31T15:11:22;22.80;99.90
25302;DHT22;13243;50.888;4.724;2022-10-31T15:16:26;23.00;99.90
25302;DHT22;13243;50.888;4.724;2022-10-31T15:21:30;22.90;99.90
25302;DHT22;13243;50.888;4.724;2022-10-31T15:26:37;22.60;99.90
25302;DHT22;13243;50.888;4.724;2022-10-31T15:31:52;20.90;99.90
25302;DHT22;13243;50.888;4.724;2022-10-31T15:36:54;19.80;99.90
25302;DHT22;13243;50.888;4.724;2022-10-31T15:41:58;19.80;99.90
25302;DHT22;13243;50.888;4.724;2022-10-31T15:47:04;19.60;99.90
25302;DHT22;13243;50.888;4.724;2022-10-31T15:57:27;18.70;99.90
25302;DHT22;13243;50.888;4.724;2022-10-31T16:02:29;18.50;99.90
25302;DHT22;13243;50.888;4.724;2022-10-31T16:07:32;18.20;99.90
25302;DHT22;13243;50.888;4.724;2022-10-31T16:12:44;18.20;99.90
25302;DHT22;13243;50.888;4.724;2022-10-31T16:17:49;18.20;99.90
25302;DHT22;13243;50.888;4.724;2022-10-31T16:22:52;18.10;99.90
25302;DHT22;13243;50.888;4.724;2022-10-31T16:28:02;18.10;99.90
25302;DHT22;13243;50.888;4.724;2022-10-31T16:38:28;18.00;99.90
25302;DHT22;13243;50.888;4.724;2022-10-31T16:43:29;18.00;99.90
25302;DHT22;13243;50.888;4.724;2022-10-31T16:48:31;18.00;99.90
25302;DHT22;13243;50.888;4.724;2022-10-31T16:53:33;18.00;99.90
25302;DHT22;13243;50.888;4.724;2022-10-31T16:58:35;17.90;99.90
25302;DHT22;13243;50.888;4.724;2022-10-31T17:03:37;17.80;99.90
25302;DHT22;13243;50.888;4.724;2022-10-31T17:08:39;17.80;99.90
25302;DHT22;13243;50.888;4.724;2022-10-31T17:13:41;17.70;99.90
25302;DHT22;13243;50.888;4.724;2022-10-31T17:18:43;17.50;99.90
25302;DHT22;13243;50.888;4.724;2022-10-31T17:23:46;17.60;99.90
25302;DHT22;13243;50.888;4.724;2022-10-31T17:28:48;17.50;99.90
25302;DHT22;13243;50.888;4.724;2022-10-31T17:33:50;17.40;99.90
25302;DHT22;13243;50.888;4.724;2022-10-31T17:38:52;17.40;99.90
25302;DHT22;13243;50.888;4.724;2022-10-31T17:43:55;17.40;99.90
25302;DHT22;13243;50.888;4.724;2022-10-31T17:48:57;17.30;99.90
25302;DHT22;13243;50.888;4.724;2022-10-31T17:54:01;17.20;99.90
25302;DHT22;13243;50.888;4.724;2022-10-31T17:59:03;17.10;99.90
25302;DHT22;13243;50.888;4.724;2022-10-31T18:04:09;17.10;99.90
25302;DHT22;13243;50.888;4.724;2022-10-31T18:09:11;17.10;99.90
25302;DHT22;13243;50.888;4.724;2022-10-31T18:14:13;17.10;99.90
25302;DHT22;13243;50.888;4.724;2022-10-31T18:19:15;17.00;99.90
25302;DHT22;13243;50.888;4.724;2022-10-31T18:24:17;17.00;99.90
25302;DHT22;13243;50.888;4.724;2022-10-31T18:29:18;16.90;99.90
25302;DHT22;13243;50.888;4.724;2022-10-31T18:34:20;16.80;99.90
25302;DHT22;13243;50.888;4.724;2022-10-31T18:39:22;16.80;99.90
25302;DHT22;13243;50.888;4.724;2022-10-31T18:44:24;16.70;99.90
25302;DHT22;13243;50.888;4.724;2022-10-31T18:49:26;16.70;99.90
25302;DHT22;13243;50.888;4.724;2022-10-31T18:54:33;16.70;99.90
25302;DHT22;13243;50.888;4.724;2022-10-31T18:59:35;16.50;99.90
25302;DHT22;13243;50.888;4.724;2022-10-31T19:04:36;16.40;99.90
25302;DHT22;13243;50.888;4.724;2022-10-31T19:09:38;16.40;99.90
25302;DHT22;13243;50.888;4.724;2022-10-31T19:14:40;16.40;99.90
25302;DHT22;13243;50.888;4.724;2022-10-31T19:19:42;16.40;99.90
25302;DHT22;13243;50.888;4.724;2022-10-31T19:24:44;16.40;99.90
25302;DHT22;13243;50.888;4.724;2022-10-31T19:29:46;16.40;99.90
25302;DHT22;13243;50.888;4.724;2022-10-31T19:34:48;16.40;99.90
25302;DHT22;13243;50.888;4.724;2022-10-31T19:39:50;16.30;99.90
25302;DHT22;13243;50.888;4.724;2022-10-31T19:44:52;16.30;99.90
25302;DHT22;13243;50.888;4.724;2022-10-31T19:49:54;16.40;99.90
25302;DHT22;13243;50.888;4.724;2022-10-31T19:54:55;16.40;99.90
25302;DHT22;13243;50.888;4.724;2022-10-31T19:59:57;16.40;99.90
25302;DHT22;13243;50.888;4.724;2022-10-31T20:04:59;16.60;99.90
25302;DHT22;13243;50.888;4.724;2022-10-31T20:10:02;16.70;99.90
25302;DHT22;13243;50.888;4.724;2022-10-31T20:15:04;16.70;99.90
25302;DHT22;13243;50.888;4.724;2022-10-31T20:20:07;16.70;99.90
25302;DHT22;13243;50.888;4.724;2022-10-31T20:25:09;16.80;99.90
25302;DHT22;13243;50.888;4.724;2022-10-31T20:30:11;16.80;99.90
25302;DHT22;13243;50.888;4.724;2022-10-31T20:35:13;16.90;99.90
25302;DHT22;13243;50.888;4.724;2022-10-31T20:40:15;17.00;99.90
25302;DHT22;13243;50.888;4.724;2022-10-31T20:45:17;17.00;99.90
25302;DHT22;13243;50.888;4.724;2022-10-31T20:50:19;17.00;99.90
25302;DHT22;13243;50.888;4.724;2022-10-31T20:55:21;17.00;99.90
25302;DHT22;13243;50.888;4.724;2022-10-31T21:00:23;17.00;99.90
25302;DHT22;13243;50.888;4.724;2022-10-31T21:05:24;17.00;99.90
25302;DHT22;13243;50.888;4.724;2022-10-31T21:10:26;17.10;99.90
25302;DHT22;13243;50.888;4.724;2022-10-31T21:15:28;17.00;99.90
25302;DHT22;13243;50.888;4.724;2022-10-31T21:20:30;17.00;99.90
25302;DHT22;13243;50.888;4.724;2022-10-31T21:25:32;17.00;99.90
25302;DHT22;13243;50.888;4.724;2022-10-31T21:30:41;17.10;99.90
25302;DHT22;13243;50.888;4.724;2022-10-31T21:35:50;17.20;99.90
25302;DHT22;13243;50.888;4.724;2022-10-31T21:41:04;17.20;99.90
25302;DHT22;13243;50.888;4.724;2022-10-31T21:46:12;17.30;99.90
25302;DHT22;13243;50.888;4.724;2022-10-31T21:51:17;17.30;99.90
25302;DHT22;13243;50.888;4.724;2022-10-31T21:56:19;17.40;99.90
25302;DHT22;13243;50.888;4.724;2022-10-31T22:01:23;17.40;99.90
25302;DHT22;13243;50.888;4.724;2022-10-31T22:06:26;17.40;99.90
25302;DHT22;13243;50.888;4.724;2022-10-31T22:11:30;17.50;99.90
25302;DHT22;13243;50.888;4.724;2022-10-31T22:16:34;17.50;99.90
25302;DHT22;13243;50.888;4.724;2022-10-31T22:21:45;17.60;99.90
25302;DHT22;13243;50.888;4.724;2022-10-31T22:26:50;17.70;99.90
25302;DHT22;13243;50.888;4.724;2022-10-31T22:31:52;17.70;99.90
25302;DHT22;13243;50.888;4.724;2022-10-31T22:37:01;17.60;99.90
25302;DHT22;13243;50.888;4.724;2022-10-31T22:42:02;17.70;99.90
25302;DHT22;13243;50.888;4.724;2022-10-31T22:47:05;17.70;99.90
25302;DHT22;13243;50.888;4.724;2022-10-31T22:52:07;17.70;99.90
25302;DHT22;13243;50.888;4.724;2022-10-31T22:57:09;17.60;99.90
25302;DHT22;13243;50.888;4.724;2022-10-31T23:02:11;17.70;99.90
25302;DHT22;13243;50.888;4.724;2022-10-31T23:07:13;17.70;99.90
25302;DHT22;13243;50.888;4.724;2022-10-31T23:12:16;17.70;99.90
25302;DHT22;13243;50.888;4.724;2022-10-31T23:17:37;17.70;99.90
25302;DHT22;13243;50.888;4.724;2022-10-31T23:22:39;17.70;99.90
25302;DHT22;13243;50.888;4.724;2022-10-31T23:27:41;17.60;99.90
25302;DHT22;13243;50.888;4.724;2022-10-31T23:32:43;17.60;99.90
25302;DHT22;13243;50.888;4.724;2022-10-31T23:37:45;17.70;99.90
25302;DHT22;13243;50.888;4.724;2022-10-31T23:42:47;17.70;99.90
25302;DHT22;13243;50.888;4.724;2022-10-31T23:47:48;17.80;99.90
25302;DHT22;13243;50.888;4.724;2022-10-31T23:52:50;17.70;99.90
25302;DHT22;13243;50.888;4.724;2022-10-31T23:57:52;17.80;99.90
